Time;durP1;ratioP1;P1;durP2;ratioP2;P2;SDS_P1;SDS_P2;PMS_P1;PMS_P2;Temp;Humidity;BMP_temperature;BMP_pressure;BME280_temperature;BME280_humidity;BME280_pressure;Samples;Min_cycle;Max_cycle;Signal;HPM_P1;HPM_P2
2020/02/03 00:02:09;;;;;;;6.7;1.4;;;;;;;10.13;90.03418;935.8405;;;;
2020/02/03 00:04:37;;;;;;;1;0.7;;;;;;;10;91.11426;935.9952;;;;
2020/02/03 00:07:01;;;;;;;1.6;0.7;;;;;;;9.87;90.99609;935.9497;;;;
2020/02/03 00:09:33;;;;;;;0.9;0.6;;;;;;;9.94;91.27344;936.0608;;;;
2020/02/03 00:11:56;;;;;;;0.8;0.5;;;;;;;10.01;91.25293;935.92;;;;
2020/02/03 00:14:26;;;;;;;1.6;0.6;;;;;;;10.13;91.0625;935.9639;;;;
2020/02/03 00:16:52;;;;;;;0.9;0.6;;;;;;;10.36;89.94629;936.032;;;;
2020/02/03 00:20:01;;;;;;;1;0.7;;;;;;;10.54;88.65918;936.0144;;;;
2020/02/03 00:22:27;;;;;;;1.2;0.7;;;;;;;10.6;88.47852;935.943;;;;
2020/02/03 00:24:50;;;;;;;1.2;0.6;;;;;;;10.73;87.70215;935.9439;;;;
2020/02/03 00:27:19;;;;;;;1.3;0.7;;;;;;;10.65;88.11035;936.0144;;;;
2020/02/03 00:30:17;;;;;;;2.9;0.8;;;;;;;10.65;88.37305;935.9698;;;;
2020/02/03 00:32:37;;;;;;;1.8;0.8;;;;;;;10.53;88.41602;935.8606;;;;
2020/02/03 00:35:06;;;;;;;1.2;0.6;;;;;;;10.47;89.20605;935.9048;;;;
2020/02/03 00:37:32;;;;;;;1.3;0.6;;;;;;;10.48;89.13672;935.8627;;;;
2020/02/03 00:40:18;;;;;;;1.2;0.5;;;;;;;10.52;89.37305;935.8184;;;;
2020/02/03 00:42:51;;;;;;;1.2;0.8;;;;;;;10.29;88.9502;935.7722;;;;
2020/02/03 00:45:19;;;;;;;2;1;;;;;;;10.26;90.00391;936.033;;;;
2020/02/03 00:50:19;;;;;;;3.1;0.8;;;;;;;10.05;89.9375;935.743;;;;
2020/02/03 00:52:40;;;;;;;1.9;0.9;;;;;;;10.01;90.28125;935.8083;;;;
2020/02/03 00:55:01;;;;;;;1.8;0.7;;;;;;;10.16;90.30176;935.7603;;;;
2020/02/03 00:57:27;;;;;;;1.6;0.8;;;;;;;10.21;90.29102;935.7494;;;;
2020/02/03 00:59:55;;;;;;;2.9;0.9;;;;;;;10.25;89.8877;935.7695;;;;
2020/02/03 01:02:22;;;;;;;1.4;0.9;;;;;;;10.34;89.70117;935.774;;;;
2020/02/03 01:04:51;;;;;;;3.2;0.8;;;;;;;10.44;88.99316;935.7877;;;;
2020/02/03 01:07:17;;;;;;;2.1;0.9;;;;;;;10.44;89.12988;935.8226;;;;
2020/02/03 01:09:41;;;;;;;1.9;0.7;;;;;;;10.55;88.59277;935.8345;;;;
2020/02/03 01:12:07;;;;;;;2.1;0.6;;;;;;;10.5;88.36621;935.7626;;;;
2020/02/03 01:14:32;;;;;;;2.5;0.6;;;;;;;10.41;89.01953;935.7668;;;;
2020/02/03 01:16:56;;;;;;;3.1;0.9;;;;;;;10.53;88.33789;935.621;;;;
2020/02/03 01:19:22;;;;;;;1.6;0.7;;;;;;;10.63;87.61523;935.6965;;;;
2020/02/03 01:21:55;;;;;;;2.4;0.8;;;;;;;10.61;87.92969;935.6082;;;;
2020/02/03 01:24:15;;;;;;;1.6;0.5;;;;;;;10.36;89.21582;935.7742;;;;
2020/02/03 01:29:11;;;;;;;1.8;0.5;;;;;;;10.3;89.46484;935.6568;;;;
2020/02/03 01:31:46;;;;;;;1.4;0.6;;;;;;;10.33;89.04883;935.4677;;;;
2020/02/03 01:34:18;;;;;;;1.2;0.4;;;;;;;9.78;90.66699;935.3403;;;;
2020/02/03 01:39:34;;;;;;;2;0.4;;;;;;;9.87;91.38379;935.3397;;;;
2020/02/03 01:41:58;;;;;;;1;0.4;;;;;;;9.95;91.92383;935.2742;;;;
2020/02/03 01:44:30;;;;;;;0.6;0.4;;;;;;;10.07;91.3916;935.2395;;;;
2020/02/03 01:46:54;;;;;;;3.1;0.4;;;;;;;10.11;90.57813;935.1792;;;;
2020/02/03 01:49:24;;;;;;;2;0.4;;;;;;;10.07;90.73047;935.3716;;;;
2020/02/03 01:51:56;;;;;;;1.6;0.5;;;;;;;10.25;90.3457;935.2324;;;;
2020/02/03 01:54:28;;;;;;;1.9;0.4;;;;;;;10.32;89.61914;935.3251;;;;
2020/02/03 01:56:49;;;;;;;0.9;0.4;;;;;;;10.33;89.48242;935.3499;;;;
2020/02/03 01:59:15;;;;;;;3.3;0.5;;;;;;;10.45;89.25684;935.4192;;;;
2020/02/03 02:01:47;;;;;;;1.1;0.5;;;;;;;10.39;89.19824;935.2164;;;;
2020/02/03 02:04:12;;;;;;;1.9;0.5;;;;;;;10.45;88.80078;935.2059;;;;
2020/02/03 02:06:49;;;;;;;2.6;0.4;;;;;;;10.3;89.47852;935.3425;;;;
2020/02/03 02:09:13;;;;;;;1.4;0.5;;;;;;;10.21;90.11914;935.5908;;;;
2020/02/03 02:11:45;;;;;;;3;1;;;;;;;10.29;89.36035;935.5175;;;;
2020/02/03 02:14:08;;;;;;;1.4;0.5;;;;;;;10.06;91.1709;935.4844;;;;
2020/02/03 02:16:35;;;;;;;3.2;0.7;;;;;;;10.25;90.93945;935.433;;;;
2020/02/03 02:19:03;;;;;;;2.8;0.7;;;;;;;10.29;90.65918;935.426;;;;
2020/02/03 02:21:29;;;;;;;1.3;0.7;;;;;;;9.78;91.85254;935.051;;;;
2020/02/03 02:23:56;;;;;;;2.2;0.9;;;;;;;9.38;94.04785;935.2967;;;;
2020/02/03 02:29:21;;;;;;;3.3;0.8;;;;;;;9.68;94.19238;935.5161;;;;
2020/02/03 02:31:55;;;;;;;6;1;;;;;;;9.94;93.12988;935.8459;;;;
2020/02/03 02:36:51;;;;;;;5;1;;;;;;;10.01;91.41211;936.0875;;;;
2020/02/03 02:39:18;;;;;;;2.9;0.9;;;;;;;9.76;92.46582;935.76;;;;
2020/02/03 02:41:37;;;;;;;3.6;1.1;;;;;;;9.86;93.46777;935.7221;;;;
2020/02/03 02:44:05;;;;;;;5.8;1.4;;;;;;;9.87;93.15039;935.5433;;;;
2020/02/03 02:46:32;;;;;;;7.5;1.3;;;;;;;9.9;92.8584;935.8688;;;;
2020/02/03 02:49:24;;;;;;;6.5;1.2;;;;;;;10.01;92.58887;935.7936;;;;
2020/02/03 02:52:07;;;;;;;8.1;1.2;;;;;;;10.01;92.07422;936.0032;;;;
2020/02/03 02:56:49;;;;;;;9.1;1.7;;;;;;;10.3;86.95605;935.7802;;;;
2020/02/03 02:59:14;;;;;;;7.2;1.5;;;;;;;10.57;88.38867;935.9881;;;;
2020/02/03 03:01:39;;;;;;;8.6;1.7;;;;;;;10.69;88.2207;935.9462;;;;
2020/02/03 03:04:12;;;;;;;11.3;1.8;;;;;;;10.69;87.5127;936.0879;;;;
2020/02/03 03:06:41;;;;;;;7.5;1.6;;;;;;;10.55;87.3457;936.0342;;;;
2020/02/03 03:09:23;;;;;;;10;1.5;;;;;;;10.67;87.69141;935.8345;;;;
2020/02/03 03:11:50;;;;;;;10.5;2;;;;;;;10.85;84.56152;936.1526;;;;
2020/02/03 03:14:21;;;;;;;8.7;2;;;;;;;10.82;82.75098;936.0442;;;;
2020/02/03 03:16:55;;;;;;;14.1;2.4;;;;;;;11.02;79.60156;935.8262;;;;
2020/02/03 03:19:13;;;;;;;11.9;2.7;;;;;;;11.11;80.38379;936.0417;;;;
2020/02/03 03:21:38;;;;;;;15.7;3.1;;;;;;;11.25;79.75781;935.8552;;;;
2020/02/03 03:24:03;;;;;;;14.9;2.7;;;;;;;11.25;77.4248;936.0449;;;;
2020/02/03 03:26:30;;;;;;;12.5;2.6;;;;;;;11.28;77.35059;936.1016;;;;
2020/02/03 03:28:54;;;;;;;13.1;2.6;;;;;;;11.33;75.92773;936.1001;;;;
2020/02/03 03:31:22;;;;;;;14.6;2.8;;;;;;;11.32;78.30664;936.2252;;;;
2020/02/03 03:33:52;;;;;;;13.9;2.6;;;;;;;11.28;78.01367;936.2267;;;;
2020/02/03 03:36:25;;;;;;;13.6;2.7;;;;;;;11.39;74.95801;936.2526;;;;
2020/02/03 03:38:51;;;;;;;12.9;2.8;;;;;;;11.52;75.56152;936.3162;;;;
2020/02/03 03:41:18;;;;;;;12.7;2.6;;;;;;;11.56;75.34082;936.3872;;;;
2020/02/03 03:43:49;;;;;;;15.8;2.7;;;;;;;11.61;75.57715;936.3717;;;;
2020/02/03 03:46:39;;;;;;;15;2.8;;;;;;;11.48;76.03613;936.155;;;;
2020/02/03 03:48:57;;;;;;;10.4;2.6;;;;;;;11.36;76.24414;936.101;;;;
2020/02/03 03:51:10;;;;;;;15.6;2.8;;;;;;;11.19;78.31836;936.0564;;;;
2020/02/03 03:53:37;;;;;;;14.5;2.7;;;;;;;11.22;76.63086;935.9969;;;;
2020/02/03 03:56:00;;;;;;;13.9;2.7;;;;;;;11.21;74.82031;936.0684;;;;
2020/02/03 03:58:24;;;;;;;14;2.5;;;;;;;11.25;74.42773;936.0544;;;;
2020/02/03 04:02:32;;;;;;;10.5;2.9;;;;;;;11.15;74.76563;935.9478;;;;
2020/02/03 04:05:02;;;;;;;9.7;2.2;;;;;;;11.31;74.11816;936.0307;;;;
2020/02/03 04:07:28;;;;;;;15.8;2.9;;;;;;;11.25;74.34766;935.986;;;;
2020/02/03 04:09:52;;;;;;;12.8;2.8;;;;;;;11.14;74.92578;935.861;;;;
2020/02/03 04:12:19;;;;;;;12.3;2.3;;;;;;;11.09;75.12207;935.9412;;;;
2020/02/03 04:14:38;;;;;;;12;2.6;;;;;;;11.08;73.42676;935.7292;;;;
2020/02/03 04:17:09;;;;;;;12.3;2.1;;;;;;;11.13;74.54492;935.9685;;;;
2020/02/03 04:19:33;;;;;;;12.5;2.2;;;;;;;11.22;73.43945;935.9093;;;;
2020/02/03 04:22:04;;;;;;;15.5;3.1;;;;;;;11.05;74.54395;935.918;;;;
2020/02/03 04:24:27;;;;;;;9.3;2.3;;;;;;;11.03;74.14063;935.8542;;;;
2020/02/03 04:26:55;;;;;;;12.7;2.5;;;;;;;11.01;73.24512;935.8563;;;;
2020/02/03 04:29:26;;;;;;;12.2;2.4;;;;;;;10.99;74.04199;935.9055;;;;
2020/02/03 04:31:51;;;;;;;11.7;2.2;;;;;;;11.02;73.36035;935.788;;;;
2020/02/03 04:34:18;;;;;;;10.5;2.1;;;;;;;10.95;73.47363;935.5891;;;;
2020/02/03 04:36:46;;;;;;;11.4;2;;;;;;;10.86;74.13281;935.4509;;;;
2020/02/03 04:39:10;;;;;;;10.2;1.8;;;;;;;10.84;75.30664;935.5903;;;;
2020/02/03 04:41:40;;;;;;;13.7;2.2;;;;;;;10.87;74.4082;935.4964;;;;
2020/02/03 04:44:15;;;;;;;9.9;2.1;;;;;;;10.72;78.69043;935.6955;;;;
2020/02/03 04:46:41;;;;;;;13.4;2.3;;;;;;;10.6;80.99805;935.7742;;;;
2020/02/03 04:49:07;;;;;;;9.7;2.4;;;;;;;10.44;79.71094;935.6459;;;;
2020/02/03 04:51:38;;;;;;;8.9;2.1;;;;;;;10.52;80.60645;935.6433;;;;
2020/02/03 04:53:59;;;;;;;8.7;2;;;;;;;10.22;82.14648;935.5474;;;;
2020/02/03 04:56:29;;;;;;;15.4;2.2;;;;;;;10.2;81.01367;935.6437;;;;
2020/02/03 04:58:57;;;;;;;12.3;2.3;;;;;;;10.19;80.47754;935.5648;;;;
2020/02/03 05:01:25;;;;;;;12.7;2.2;;;;;;;10.32;80.48926;935.7246;;;;
2020/02/03 05:03:52;;;;;;;10.7;2.2;;;;;;;10.36;79.35352;935.533;;;;
2020/02/03 05:06:16;;;;;;;12;2.4;;;;;;;10.3;79.9248;935.5597;;;;
2020/02/03 05:08:41;;;;;;;9.7;2.4;;;;;;;10.34;80.2627;935.5751;;;;
2020/02/03 05:11:06;;;;;;;13.1;2.5;;;;;;;10.29;81.46191;935.5851;;;;
2020/02/03 05:13:33;;;;;;;12.1;2.2;;;;;;;10.4;79.14453;935.5261;;;;
2020/02/03 05:15:57;;;;;;;12.3;2.3;;;;;;;10.25;81.91406;935.6127;;;;
2020/02/03 05:18:22;;;;;;;9.9;2.2;;;;;;;10.1;81.55371;935.4441;;;;
2020/02/03 05:20:50;;;;;;;11.1;2.4;;;;;;;9.97;82.85059;935.5885;;;;
2020/02/03 05:23:14;;;;;;;9;2.2;;;;;;;9.87;81.7832;935.1894;;;;
2020/02/03 05:25:40;;;;;;;7.9;2;;;;;;;9.94;80.72656;935.1422;;;;
2020/02/03 05:28:11;;;;;;;12.6;2.3;;;;;;;10.01;80.69238;935.1199;;;;
2020/02/03 05:31:27;;;;;;;12.8;2.4;;;;;;;10.02;81.12793;935.213;;;;
2020/02/03 05:33:58;;;;;;;10.7;1.9;;;;;;;9.99;79.74316;935.1178;;;;
2020/02/03 05:36:24;;;;;;;15;2.5;;;;;;;10.18;80.11816;935.233;;;;
2020/02/03 05:38:52;;;;;;;12.1;3;;;;;;;10.04;82.63867;935.392;;;;
2020/02/03 05:41:15;;;;;;;11.5;2.4;;;;;;;9.83;81.70605;935.1827;;;;
2020/02/03 05:43:48;;;;;;;8.7;1.9;;;;;;;9.68;83.05957;935.3817;;;;
2020/02/03 05:46:19;;;;;;;9.9;2.4;;;;;;;9.78;82.79297;935.334;;;;
2020/02/03 05:48:45;;;;;;;7.1;1.9;;;;;;;9.7;81.01172;935.071;;;;
2020/02/03 05:51:08;;;;;;;10.1;1.9;;;;;;;9.73;81.26855;935.0753;;;;
2020/02/03 05:53:40;;;;;;;11.7;2.3;;;;;;;9.78;83.375;935.3356;;;;
2020/02/03 05:56:04;;;;;;;14.1;2.6;;;;;;;9.64;82.98242;935.2383;;;;
2020/02/03 05:58:29;;;;;;;10.1;2.2;;;;;;;9.72;82.89551;935.3144;;;;
2020/02/03 06:01:00;;;;;;;8.6;2.4;;;;;;;9.81;83.45801;935.397;;;;
2020/02/03 06:03:20;;;;;;;8.7;2;;;;;;;9.85;83.0332;935.4294;;;;
2020/02/03 06:05:56;;;;;;;11.9;2.4;;;;;;;9.79;83.0918;935.447;;;;
2020/02/03 06:08:19;;;;;;;12.2;2.2;;;;;;;9.71;82.01563;935.4836;;;;
2020/02/03 06:10:47;;;;;;;6.5;1.6;;;;;;;9.88;76.74609;935.2897;;;;
2020/02/03 06:13:14;;;;;;;8.6;2.1;;;;;;;10.17;73.87793;935.1701;;;;
2020/02/03 06:15:47;;;;;;;10;2;;;;;;;10.43;75.79492;935.2703;;;;
2020/02/03 06:18:11;;;;;;;8.1;2;;;;;;;10.6;74.94629;935.2974;;;;
2020/02/03 06:20:38;;;;;;;11.4;2.5;;;;;;;10.54;77.61621;935.4554;;;;
2020/02/03 06:23:03;;;;;;;10.1;2.2;;;;;;;10.68;75.12988;935.5567;;;;
2020/02/03 06:25:27;;;;;;;13;2.4;;;;;;;10.66;75.53809;935.555;;;;
2020/02/03 06:28:00;;;;;;;11.4;2.4;;;;;;;10.6;77.16113;935.7233;;;;
2020/02/03 06:30:24;;;;;;;4.8;1.2;;;;;;;10.48;74.87793;935.7338;;;;
2020/02/03 06:32:51;;;;;;;5.6;1.3;;;;;;;10.7;72.93945;935.7773;;;;
2020/02/03 06:35:18;;;;;;;5.8;1.3;;;;;;;10.9;72.72363;935.671;;;;
2020/02/03 06:37:42;;;;;;;5.7;1.4;;;;;;;10.98;73.76465;935.6481;;;;
2020/02/03 06:40:11;;;;;;;4.6;1.2;;;;;;;11.29;68.23633;935.7078;;;;
2020/02/03 06:42:35;;;;;;;6.3;1.4;;;;;;;11.58;68.19043;935.5635;;;;
2020/02/03 06:45:02;;;;;;;5.7;1.3;;;;;;;11.75;68.50391;935.7554;;;;
2020/02/03 06:47:34;;;;;;;4.7;1.3;;;;;;;11.79;68.77246;935.6241;;;;
2020/02/03 06:50:01;;;;;;;7.2;1.4;;;;;;;11.7;69.50391;935.7386;;;;
2020/02/03 06:52:43;;;;;;;6.3;1.5;;;;;;;11.74;68.78809;935.8774;;;;
2020/02/03 06:55:10;;;;;;;6.7;1.1;;;;;;;11.81;68.41113;935.9283;;;;
2020/02/03 06:57:51;;;;;;;8.2;1.4;;;;;;;11.81;69.37305;935.9554;;;;
2020/02/03 07:00:05;;;;;;;5.6;1.3;;;;;;;11.98;69.43262;935.8917;;;;
2020/02/03 07:02:34;;;;;;;6;1.5;;;;;;;11.93;70.3418;936.1031;;;;
2020/02/03 07:05:00;;;;;;;4.9;1.1;;;;;;;11.68;70.06055;936.2538;;;;
2020/02/03 07:07:27;;;;;;;6.6;1.6;;;;;;;11.69;73.94141;936.2977;;;;
2020/02/03 07:09:55;;;;;;;8;1.2;;;;;;;11.65;71.24512;936.3535;;;;
2020/02/03 07:12:21;;;;;;;4.1;1.1;;;;;;;11.47;69.39746;936.3798;;;;
2020/02/03 07:14:48;;;;;;;4.1;1.3;;;;;;;11.5;72.75488;936.4628;;;;
2020/02/03 07:17:14;;;;;;;6.5;1;;;;;;;11.46;71.71777;936.5703;;;;
2020/02/03 07:19:39;;;;;;;3.9;1;;;;;;;11.53;69.49805;936.4685;;;;
2020/02/03 07:22:12;;;;;;;4.3;1;;;;;;;11.76;68.32031;936.6902;;;;
2020/02/03 07:24:32;;;;;;;5.9;1;;;;;;;11.62;70.50977;936.6756;;;;
2020/02/03 07:26:56;;;;;;;5.4;1.3;;;;;;;11.62;68.2207;936.6309;;;;
2020/02/03 07:29:27;;;;;;;6.2;1;;;;;;;11.72;71.36035;936.77;;;;
2020/02/03 07:32:11;;;;;;;4.3;0.9;;;;;;;11.65;73.27344;936.8903;;;;
2020/02/03 07:34:33;;;;;;;4.9;1.2;;;;;;;11.45;75.03418;936.9682;;;;
2020/02/03 07:36:58;;;;;;;6.3;1.5;;;;;;;11.46;76.92578;937.1333;;;;
2020/02/03 07:39:29;;;;;;;6.1;1.2;;;;;;;11.23;78.62207;937.12;;;;
2020/02/03 07:42:02;;;;;;;6;1.1;;;;;;;11.1;80.53125;937.1183;;;;
2020/02/03 07:44:32;;;;;;;8.6;1.6;;;;;;;11.22;80.81641;937.1599;;;;
2020/02/03 07:47:09;;;;;;;6.5;1.6;;;;;;;11.15;81.47754;937.2244;;;;
2020/02/03 07:49:32;;;;;;;5.1;1.7;;;;;;;11;82.78711;937.2799;;;;
2020/02/03 07:52:01;;;;;;;7.9;1.6;;;;;;;11.03;81.47949;937.298;;;;
2020/02/03 07:54:27;;;;;;;8.8;3.3;;;;;;;11.07;80.2041;937.3094;;;;
2020/02/03 07:57:01;;;;;;;10;1.7;;;;;;;11.05;82.20117;937.3571;;;;
2020/02/03 07:59:34;;;;;;;8.4;2.4;;;;;;;11.02;82.07031;937.3903;;;;
2020/02/03 08:02:13;;;;;;;7.6;2.4;;;;;;;10.91;83.43262;937.481;;;;
2020/02/03 08:04:39;;;;;;;10.4;1.8;;;;;;;10.82;84.3291;937.4659;;;;
2020/02/03 08:07:11;;;;;;;8;2.3;;;;;;;10.93;84.27051;937.4819;;;;
2020/02/03 08:09:37;;;;;;;8.9;2.6;;;;;;;10.89;84.15918;937.5374;;;;
2020/02/03 08:12:04;;;;;;;8.8;2.9;;;;;;;10.85;83.8877;937.5481;;;;
2020/02/03 08:14:30;;;;;;;7.4;3.4;;;;;;;10.85;84.83594;937.6199;;;;
2020/02/03 08:17:27;;;;;;;11.6;4.2;;;;;;;10.78;86;937.725;;;;
2020/02/03 08:19:53;;;;;;;12.6;2.5;;;;;;;10.83;85.35742;937.7472;;;;
2020/02/03 08:22:18;;;;;;;8.7;2.1;;;;;;;10.9;84.62891;937.766;;;;
2020/02/03 08:24:44;;;;;;;11.4;3.1;;;;;;;10.91;84.99805;937.7047;;;;
2020/02/03 08:27:08;;;;;;;12.2;5.4;;;;;;;10.85;86.26563;937.7704;;;;
2020/02/03 08:29:39;;;;;;;8.4;3.5;;;;;;;10.83;85.9873;937.7592;;;;
2020/02/03 08:32:04;;;;;;;8;2.6;;;;;;;10.85;85.02051;937.8022;;;;
2020/02/03 08:34:33;;;;;;;7.7;2.3;;;;;;;10.91;84.92773;937.837;;;;
2020/02/03 08:36:58;;;;;;;7.8;2.5;;;;;;;10.88;85.43652;937.7555;;;;
2020/02/03 08:39:27;;;;;;;7.8;2;;;;;;;10.71;85.97559;937.7531;;;;
2020/02/03 08:41:53;;;;;;;8.4;2.7;;;;;;;10.83;85.70215;937.8627;;;;
2020/02/03 08:44:24;;;;;;;8.4;3;;;;;;;11.05;85.0459;937.8391;;;;
2020/02/03 08:46:44;;;;;;;15.9;2.7;;;;;;;11.07;84.78809;937.8886;;;;
2020/02/03 08:49:12;;;;;;;8.5;2.5;;;;;;;11.16;85.01367;938.0454;;;;
2020/02/03 08:51:40;;;;;;;14.4;3.2;;;;;;;11.18;85.08594;937.9786;;;;
2020/02/03 08:54:50;;;;;;;10.7;3.3;;;;;;;11.15;84.89551;938.0573;;;;
2020/02/03 08:59:03;;;;;;;7.2;2.8;;;;;;;10.89;85.72461;937.8909;;;;
2020/02/03 09:01:46;;;;;;;8.4;3.4;;;;;;;10.94;85.64355;937.979;;;;
2020/02/03 09:03:57;;;;;;;8.4;3.1;;;;;;;10.95;85.65723;937.9551;;;;
2020/02/03 09:06:17;;;;;;;9;2.9;;;;;;;10.97;85.45508;937.9099;;;;
2020/02/03 09:08:42;;;;;;;6.2;2;;;;;;;11.06;84.94629;937.8997;;;;
2020/02/03 09:11:06;;;;;;;8.5;1.9;;;;;;;11.12;84.28418;937.8993;;;;
2020/02/03 09:13:36;;;;;;;6.8;2.2;;;;;;;10.73;85.48828;937.9707;;;;
2020/02/03 09:16:07;;;;;;;8.8;2.8;;;;;;;10.59;86.39746;937.9924;;;;
2020/02/03 09:18:33;;;;;;;9.4;2.2;;;;;;;10.5;86.8252;938.0784;;;;
2020/02/03 09:21:01;;;;;;;7.2;2.4;;;;;;;10.47;86.77246;938.0255;;;;
2020/02/03 09:23:29;;;;;;;9.2;2.7;;;;;;;10.53;86.70508;938.0284;;;;
2020/02/03 09:25:54;;;;;;;6.9;2.3;;;;;;;10.57;86.51855;938.0686;;;;
2020/02/03 09:28:23;;;;;;;5;1.9;;;;;;;10.73;85.92188;938.1403;;;;
2020/02/03 09:30:48;;;;;;;5.2;2;;;;;;;10.71;86.37598;938.3234;;;;
2020/02/03 09:33:20;;;;;;;4.6;1.6;;;;;;;10.35;87.39941;938.3306;;;;
2020/02/03 09:35:54;;;;;;;5;1.3;;;;;;;10.38;87.71289;938.4358;;;;
2020/02/03 09:38:19;;;;;;;3.5;0.8;;;;;;;9.89;86.05176;938.3651;;;;
2020/02/03 09:40:48;;;;;;;1.6;0.8;;;;;;;9.51;86.83105;938.4169;;;;
2020/02/03 09:43:35;;;;;;;2.5;1.2;;;;;;;9.4;87.86816;938.6027;;;;
2020/02/03 09:46:05;;;;;;;3.9;2.4;;;;;;;9.1;89.0918;938.5845;;;;
2020/02/03 09:48:30;;;;;;;2.1;1.5;;;;;;;8.89;89.2168;938.6619;;;;
2020/02/03 09:50:57;;;;;;;2.4;0.8;;;;;;;8.74;90.31445;938.4996;;;;
2020/02/03 09:53:35;;;;;;;3.5;0.7;;;;;;;8.91;89.49805;938.455;;;;
2020/02/03 09:56:07;;;;;;;1.5;0.6;;;;;;;8.87;89.12207;938.5804;;;;
2020/02/03 09:58:38;;;;;;;1.8;0.9;;;;;;;8.52;89.97168;938.5948;;;;
2020/02/03 10:01:11;;;;;;;3.1;1.1;;;;;;;8.42;90.66699;938.6589;;;;
2020/02/03 10:06:30;;;;;;;1.3;0.9;;;;;;;8.5;90.62695;938.7698;;;;
2020/02/03 10:08:59;;;;;;;1.6;0.7;;;;;;;8.47;90.11035;938.7765;;;;
2020/02/03 10:11:30;;;;;;;1.5;0.5;;;;;;;8.52;90.07422;938.7924;;;;
2020/02/03 10:14:04;;;;;;;6.4;4.2;;;;;;;8.59;89.45313;938.9047;;;;
2020/02/03 10:17:10;;;;;;;11.9;7.5;;;;;;;8.49;89.89844;938.8752;;;;
2020/02/03 10:19:29;;;;;;;16;8.7;;;;;;;8.26;91.2002;938.9799;;;;
2020/02/03 10:22:02;;;;;;;6.7;3.2;;;;;;;8.07;92.19336;939.098;;;;
2020/02/03 10:24:20;;;;;;;3.3;2.1;;;;;;;8.28;91.60156;938.9913;;;;
2020/02/03 10:26:54;;;;;;;1.4;0.8;;;;;;;8.38;90.75977;938.9483;;;;
2020/02/03 10:29:18;;;;;;;0.5;0.5;;;;;;;8.29;90.72949;938.8708;;;;
2020/02/03 10:31:59;;;;;;;0.7;0.4;;;;;;;8.35;90.82227;938.8159;;;;
2020/02/03 10:34:24;;;;;;;1.3;0.2;;;;;;;8.17;90.34277;938.713;;;;
2020/02/03 10:36:50;;;;;;;0.7;0.3;;;;;;;8.24;90.91309;938.8683;;;;
2020/02/03 10:39:19;;;;;;;2.1;1.3;;;;;;;8.18;90.98047;938.9058;;;;
2020/02/03 10:41:57;;;;;;;0.9;0.6;;;;;;;8.23;90.87891;939.0078;;;;
2020/02/03 10:44:18;;;;;;;0.6;0.5;;;;;;;8.29;90.65137;939.005;;;;
2020/02/03 10:46:43;;;;;;;1.1;0.7;;;;;;;8.28;90.66113;939.0334;;;;
2020/02/03 10:49:09;;;;;;;1;0.7;;;;;;;8.27;90.64551;939.1512;;;;
2020/02/03 10:51:38;;;;;;;0.8;0.7;;;;;;;8.35;90.2998;939.1428;;;;
2020/02/03 10:54:09;;;;;;;1.3;0.7;;;;;;;8.35;90.14258;939.1873;;;;
2020/02/03 10:56:44;;;;;;;1;0.7;;;;;;;8.2;90.07422;939.1814;;;;
2020/02/03 10:59:20;;;;;;;1.2;0.8;;;;;;;8.12;90.68359;939.2734;;;;
2020/02/03 11:01:47;;;;;;;1.9;0.7;;;;;;;8.32;89.81641;939.1959;;;;
2020/02/03 11:04:16;;;;;;;1.2;0.6;;;;;;;8.04;89.9043;939.0886;;;;
2020/02/03 11:07:50;;;;;;;0.9;0.6;;;;;;;8.09;89.76758;939.1331;;;;
2020/02/03 11:10:15;;;;;;;1.5;0.9;;;;;;;8.16;89.51074;939.129;;;;
2020/02/03 11:12:40;;;;;;;2;0.7;;;;;;;8.2;88.62305;939.1727;;;;
2020/02/03 11:15:07;;;;;;;2.2;0.9;;;;;;;8.01;88.50391;939.2823;;;;
2020/02/03 11:20:40;;;;;;;0.8;0.5;;;;;;;7.97;86.61035;939.2661;;;;
2020/02/03 11:23:18;;;;;;;0.5;0.5;;;;;;;7.96;85.92773;939.3008;;;;
2020/02/03 11:25:46;;;;;;;0.7;0.4;;;;;;;8.07;85.24609;939.4263;;;;
2020/02/03 11:28:20;;;;;;;1;0.5;;;;;;;8.04;85.20605;939.4171;;;;
2020/02/03 11:30:45;;;;;;;1;0.5;;;;;;;7.96;86.06445;939.4109;;;;
2020/02/03 11:33:14;;;;;;;1;0.6;;;;;;;7.92;86.61328;939.3999;;;;
2020/02/03 11:35:43;;;;;;;1.1;0.5;;;;;;;7.92;86.46387;939.4308;;;;
2020/02/03 11:38:18;;;;;;;1.2;0.8;;;;;;;7.78;86.77637;939.3403;;;;
2020/02/03 11:40:52;;;;;;;1.3;0.8;;;;;;;7.75;87.71289;939.4172;;;;
2020/02/03 11:43:21;;;;;;;2.6;1;;;;;;;7.71;88.19336;939.4364;;;;
2020/02/03 11:45:47;;;;;;;1.9;1.2;;;;;;;7.61;88.71484;939.3466;;;;
2020/02/03 11:48:18;;;;;;;1.4;0.9;;;;;;;7.76;88.81543;939.5198;;;;
2020/02/03 11:50:51;;;;;;;1.5;1;;;;;;;7.85;88.10547;939.5632;;;;
2020/02/03 11:53:19;;;;;;;2.5;0.9;;;;;;;7.89;87.78809;939.4952;;;;
2020/02/03 11:55:37;;;;;;;2.1;0.8;;;;;;;7.93;87.5791;939.6015;;;;
2020/02/03 11:58:11;;;;;;;1.9;1;;;;;;;8.08;86.84961;939.678;;;;
2020/02/03 12:00:35;;;;;;;2.3;1.1;;;;;;;8.19;86.81543;939.6128;;;;
2020/02/03 12:03:06;;;;;;;1;0.7;;;;;;;7.76;87.06836;939.6292;;;;
2020/02/03 12:05:33;;;;;;;2.9;0.9;;;;;;;7.84;87.68359;939.7572;;;;
2020/02/03 12:08:01;;;;;;;2.1;0.8;;;;;;;7.97;86.80371;939.7418;;;;
2020/02/03 12:10:28;;;;;;;0.9;0.8;;;;;;;7.99;86.69336;939.7699;;;;
2020/02/03 12:12:58;;;;;;;1.5;0.8;;;;;;;7.72;86.80957;939.8106;;;;
2020/02/03 12:15:27;;;;;;;1.4;0.7;;;;;;;7.99;86.8418;939.8461;;;;
2020/02/03 12:17:55;;;;;;;1.2;0.9;;;;;;;7.99;86.0127;939.8549;;;;
2020/02/03 12:20:27;;;;;;;1.9;1.1;;;;;;;7.98;86.45508;939.8412;;;;
2020/02/03 12:22:57;;;;;;;1.6;0.8;;;;;;;8.2;86.02051;939.7628;;;;
2020/02/03 12:25:19;;;;;;;1.3;0.8;;;;;;;8.33;85.26367;939.6983;;;;
2020/02/03 12:27:46;;;;;;;1.4;0.7;;;;;;;8.47;84.29004;939.6548;;;;
2020/02/03 12:30:26;;;;;;;2.1;0.9;;;;;;;8.37;83.96387;939.7001;;;;
2020/02/03 12:32:50;;;;;;;1.4;1.2;;;;;;;8.27;83.79688;939.7399;;;;
2020/02/03 12:35:23;;;;;;;1.5;1;;;;;;;8.37;84.2373;939.7042;;;;
2020/02/03 12:37:47;;;;;;;1.2;0.8;;;;;;;8.36;83.66895;939.6874;;;;
2020/02/03 12:40:20;;;;;;;1.9;0.8;;;;;;;8.36;83.10059;939.6556;;;;
2020/02/03 12:42:52;;;;;;;1.7;0.8;;;;;;;8.49;83.2373;939.5933;;;;
2020/02/03 12:45:27;;;;;;;1.4;1;;;;;;;8.62;82.72949;939.4992;;;;
2020/02/03 12:47:49;;;;;;;1.3;1;;;;;;;8.61;82.46777;939.634;;;;
2020/02/03 12:50:31;;;;;;;1.5;1;;;;;;;8.21;83.08301;939.6579;;;;
2020/02/03 12:55:23;;;;;;;1.6;1.1;;;;;;;8.46;83.24316;939.3928;;;;
2020/02/03 12:58:32;;;;;;;1.3;0.9;;;;;;;8.43;82.63574;939.3772;;;;
2020/02/03 13:01:11;;;;;;;1.6;1.1;;;;;;;8.6;82.58887;939.3525;;;;
2020/02/03 13:02:54;;;;;;;1.4;1.2;;;;;;;8.72;81.48828;939.3439;;;;
2020/02/03 13:05:25;;;;;;;3;1.4;;;;;;;8.75;81.60547;939.2866;;;;
2020/02/03 13:08:01;;;;;;;2.2;1.2;;;;;;;8.84;80.80469;939.3011;;;;
2020/02/03 13:11:22;;;;;;;2.3;1.4;;;;;;;8.83;81.51953;939.3439;;;;
2020/02/03 13:13:26;;;;;;;3.1;2.2;;;;;;;8.68;81.88672;939.2756;;;;
2020/02/03 13:15:55;;;;;;;1.4;0.9;;;;;;;8.73;81.91992;939.2012;;;;
2020/02/03 13:21:33;;;;;;;1.6;0.8;;;;;;;8.84;80.83789;939.3027;;;;
2020/02/03 13:23:58;;;;;;;3.2;1.3;;;;;;;8.89;81.28027;939.1908;;;;
2020/02/03 13:28:55;;;;;;;25.8;15.3;;;;;;;8.75;82.27539;939.2547;;;;
2020/02/03 13:32:05;;;;;;;9;5.4;;;;;;;8.74;82.24219;939.2744;;;;
2020/02/03 13:34:19;;;;;;;7.1;3.2;;;;;;;8.57;82.24316;939.2822;;;;
2020/02/03 13:36:44;;;;;;;3.9;2.6;;;;;;;8.39;83.65137;939.3412;;;;
2020/02/03 13:39:09;;;;;;;13.9;8.1;;;;;;;8.36;84.04395;939.4478;;;;
2020/02/03 13:41:37;;;;;;;4.6;3.2;;;;;;;8.19;84.32617;939.443;;;;
2020/02/03 13:44:00;;;;;;;5.8;2.9;;;;;;;8.28;84.46875;939.4799;;;;
2020/02/03 13:46:25;;;;;;;6.3;3.8;;;;;;;8.4;83.95996;939.5096;;;;
2020/02/03 13:49:01;;;;;;;6;3.8;;;;;;;8.41;84.17773;939.6553;;;;
2020/02/03 13:51:26;;;;;;;3.6;2.8;;;;;;;;;;;;;
2020/02/03 13:53:51;;;;;;;7.2;4.1;;;;;;;;;;;;;
2020/02/03 13:56:16;;;;;;;8.2;2.7;;;;;;;;;;;;;
2020/02/03 13:58:48;;;;;;;9.7;4.1;;;;;;;;;;;;;
2020/02/03 14:03:36;;;;;;;6.8;4;;;;;;;;;;;;;
2020/02/03 14:06:14;;;;;;;7.9;4.8;;;;;;;;;;;;;
2020/02/03 14:08:42;;;;;;;7.7;5.4;;;;;;;;;;;;;
2020/02/03 14:11:04;;;;;;;9.2;5.4;;;;;;;;;;;;;
2020/02/03 14:13:29;;;;;;;7.6;4.8;;;;;;;;;;;;;
2020/02/03 14:15:55;;;;;;;14.4;6.6;;;;;;;;;;;;;
2020/02/03 14:18:20;;;;;;;9.6;4.9;;;;;;;;;;;;;
2020/02/03 14:20:44;;;;;;;8.5;4.8;;;;;;;;;;;;;
2020/02/03 14:23:12;;;;;;;8.8;5.5;;;;;;;;;;;;;
2020/02/03 14:25:37;;;;;;;9.1;5.3;;;;;;;;;;;;;
2020/02/03 14:28:01;;;;;;;11;5.9;;;;;;;;;;;;;
2020/02/03 14:30:25;;;;;;;12.3;5.9;;;;;;;;;;;;;
2020/02/03 14:32:54;;;;;;;23.7;12.8;;;;;;;;;;;;;
2020/02/03 14:37:41;;;;;;;11.9;7;;;;;;;;;;;;;
2020/02/03 14:40:06;;;;;;;11.8;8.1;;;;;;;;;;;;;
2020/02/03 14:42:32;;;;;;;13.6;8.4;;;;;;;;;;;;;
2020/02/03 14:44:59;;;;;;;8.3;6.5;;;;;;;;;;;;;
2020/02/03 14:47:24;;;;;;;17.5;11.8;;;;;;;;;;;;;
2020/02/03 14:49:48;;;;;;;19;12.4;;;;;;;;;;;;;
2020/02/03 14:52:48;;;;;;;16;12.4;;;;;;;;;;;;;
2020/02/03 14:54:42;;;;;;;13.7;10.8;;;;;;;;;;;;;
2020/02/03 14:57:04;;;;;;;7.3;4.8;;;;;;;;;;;;;
2020/02/03 14:59:28;;;;;;;5.1;3.8;;;;;;;;;;;;;
2020/02/03 15:01:55;;;;;;;6.6;3.6;;;;;;;;;;;;;
2020/02/03 15:04:18;;;;;;;7.8;4.7;;;;;;;;;;;;;
2020/02/03 15:06:53;;;;;;;5.3;3.2;;;;;;;;;;;;;
2020/02/03 15:09:11;;;;;;;4.8;2.7;;;;;;;;;;;;;
2020/02/03 15:11:44;;;;;;;3.4;1.8;;;;;;;;;;;;;
2020/02/03 15:14:14;;;;;;;3;1.7;;;;;;;;;;;;;
2020/02/03 15:16:33;;;;;;;2.4;1.7;;;;;;;;;;;;;
2020/02/03 15:19:16;;;;;;;2.7;1.8;;;;;;;;;;;;;
2020/02/03 15:21:40;;;;;;;6.3;3.2;;;;;;;;;;;;;
2020/02/03 15:24:10;;;;;;;5.2;3.4;;;;;;;;;;;;;
2020/02/03 15:26:33;;;;;;;6.3;3.8;;;;;;;;;;;;;
2020/02/03 15:28:58;;;;;;;5.1;3.7;;;;;;;;;;;;;
2020/02/03 15:31:24;;;;;;;9.2;5.3;;;;;;;;;;;;;
2020/02/03 15:33:55;;;;;;;6.4;4.3;;;;;;;;;;;;;
2020/02/03 15:36:17;;;;;;;7;3.8;;;;;;;;;;;;;
2020/02/03 15:38:39;;;;;;;7.1;3.8;;;;;;;;;;;;;
2020/02/03 15:41:06;;;;;;;4.8;3;;;;;;;;;;;;;
2020/02/03 15:43:33;;;;;;;5.2;3.6;;;;;;;;;;;;;
2020/02/03 15:45:56;;;;;;;8.1;4.7;;;;;;;;;;;;;
2020/02/03 15:48:23;;;;;;;8.7;5.3;;;;;;;;;;;;;
2020/02/03 15:50:51;;;;;;;8.5;5;;;;;;;;;;;;;
2020/02/03 15:53:17;;;;;;;7.4;5;;;;;;;;;;;;;